Time;durP1;ratioP1;P1;durP2;ratioP2;P2;SDS_P1;SDS_P2;PMS_P1;PMS_P2;Temp;Humidity;BMP_temperature;BMP_pressure;BME280_temperature;BME280_humidity;BME280_pressure;Samples;Min_cycle;Max_cycle;Signal;HPM_P1;HPM_P2
2022/09/16 00:00:29;;;;;;;;;;;19.70;95.90;;;;;;5060342;28;20253;-68
2022/09/16 00:02:54;;;;;;;;;;;19.70;95.80;;;;;;5077802;28;19909;-68
2022/09/16 00:05:20;;;;;;;;;;;19.70;95.80;;;;;;5060378;28;19919;-68
2022/09/16 00:07:46;;;;;;;;;;;19.60;95.80;;;;;;5060119;28;19942;-68
2022/09/16 00:10:13;;;;;;;;;;;19.70;95.80;;;;;;5060529;28;19928;-68
2022/09/16 00:12:39;;;;;;;;;;;19.60;95.80;;;;;;5060187;28;19962;-68
2022/09/16 00:15:05;;;;;;;;;;;19.60;95.80;;;;;;5060598;28;20357;-69
2022/09/16 00:17:30;;;;;;;;;;;19.60;95.80;;;;;;5059886;28;20007;-68
2022/09/16 00:19:57;;;;;;;;;;;19.60;95.80;;;;;;5060589;28;20003;-68
2022/09/16 00:22:23;;;;;;;;;;;19.60;95.80;;;;;;5060438;28;19992;-68
2022/09/16 00:24:48;;;;;;;;;;;19.60;95.80;;;;;;5060708;28;19966;-68
2022/09/16 00:27:14;;;;;;;;;;;19.60;95.80;;;;;;5060340;28;19913;-68
2022/09/16 00:29:40;;;;;;;;;;;19.60;95.80;;;;;;5060355;28;19913;-68
2022/09/16 00:32:06;;;;;;;;;;;19.60;95.80;;;;;;5059559;28;19909;-68
2022/09/16 00:34:31;;;;;;;;;;;19.60;95.80;;;;;;5058634;28;20043;-68
2022/09/16 00:36:57;;;;;;;;;;;19.60;95.80;;;;;;5058200;28;19909;-68
2022/09/16 00:39:25;;;;;;;;;;;19.60;95.80;;;;;;5057949;28;19908;-68
2022/09/16 00:41:50;;;;;;;;;;;19.60;95.80;;;;;;5058141;28;19921;-68
2022/09/16 00:44:35;;;;;;;;;;;19.60;95.80;;;;;;5058513;28;19908;-68
2022/09/16 00:47:02;;;;;;;;;;;19.60;95.80;;;;;;5058369;28;20178;-68
2022/09/16 00:49:29;;;;;;;;;;;19.60;95.80;;;;;;5059592;28;19908;-68
2022/09/16 00:52:00;;;;;;;;;;;19.60;95.80;;;;;;5059092;28;20232;-68
2022/09/16 00:54:27;;;;;;;;;;;19.50;95.80;;;;;;5059645;28;19940;-68
2022/09/16 00:56:54;;;;;;;;;;;19.60;95.80;;;;;;5059747;28;19909;-68
2022/09/16 00:59:27;;;;;;;;;;;19.50;95.80;;;;;;5080174;28;20091;-68
2022/09/16 01:01:54;;;;;;;;;;;19.60;95.80;;;;;;5063885;28;20282;-68
2022/09/16 01:04:31;;;;;;;;;;;19.50;95.80;;;;;;5063976;28;19919;-68
2022/09/16 01:06:58;;;;;;;;;;;19.50;95.80;;;;;;5063080;28;19912;-68
2022/09/16 01:09:25;;;;;;;;;;;19.50;95.80;;;;;;5063593;28;20274;-68
2022/09/16 01:11:51;;;;;;;;;;;19.50;95.80;;;;;;5063374;28;19912;-68
2022/09/16 01:17:22;;;;;;;;;;;19.50;95.80;;;;;;5080228;28;19990;-68
2022/09/16 01:20:06;;;;;;;;;;;19.50;95.80;;;;;;5064107;28;19908;-68
2022/09/16 01:22:31;;;;;;;;;;;19.50;95.80;;;;;;5063661;28;19973;-68
2022/09/16 01:25:12;;;;;;;;;;;19.50;95.80;;;;;;5063556;28;19908;-68
2022/09/16 01:27:38;;;;;;;;;;;19.50;95.80;;;;;;5062895;28;19912;-68
2022/09/16 01:30:06;;;;;;;;;;;19.50;95.80;;;;;;5072138;28;19926;-68
2022/09/16 01:32:38;;;;;;;;;;;19.50;95.80;;;;;;5063429;28;19952;-68
2022/09/16 01:35:03;;;;;;;;;;;19.50;95.80;;;;;;5062766;28;19932;-68
2022/09/16 01:37:44;;;;;;;;;;;19.50;95.80;;;;;;5062462;28;19956;-68
2022/09/16 01:40:30;;;;;;;;;;;19.40;95.80;;;;;;5062001;28;19909;-69
2022/09/16 01:42:59;;;;;;;;;;;19.40;95.80;;;;;;5062538;28;19908;-68
2022/09/16 01:45:42;;;;;;;;;;;19.40;95.80;;;;;;5062484;28;20190;-68
2022/09/16 01:48:31;;;;;;;;;;;19.40;95.80;;;;;;5062782;28;19999;-68
2022/09/16 01:51:04;;;;;;;;;;;19.40;95.80;;;;;;5062957;28;19908;-68
2022/09/16 01:53:47;;;;;;;;;;;19.40;95.80;;;;;;5062214;28;19912;-68
2022/09/16 01:56:27;;;;;;;;;;;19.40;95.80;;;;;;5062423;28;19916;-68
2022/09/16 01:59:08;;;;;;;;;;;19.40;95.80;;;;;;5061896;28;19908;-68
2022/09/16 02:01:36;;;;;;;;;;;19.40;95.80;;;;;;5062336;28;19909;-68
2022/09/16 02:04:06;;;;;;;;;;;19.40;95.80;;;;;;5061950;28;19908;-68
2022/09/16 02:06:32;;;;;;;;;;;19.40;95.80;;;;;;5061933;28;19912;-68
2022/09/16 02:09:00;;;;;;;;;;;19.40;95.80;;;;;;5061406;28;19908;-68
2022/09/16 02:11:26;;;;;;;;;;;19.40;95.80;;;;;;5062165;28;20290;-68
2022/09/16 02:14:16;;;;;;;;;;;19.40;95.80;;;;;;5061728;28;19908;-68
2022/09/16 02:16:44;;;;;;;;;;;19.40;95.80;;;;;;5049619;28;19916;-68
2022/09/16 02:19:24;;;;;;;;;;;19.40;95.80;;;;;;5061783;28;19909;-68
2022/09/16 02:21:53;;;;;;;;;;;19.40;95.80;;;;;;5062487;28;20002;-68
2022/09/16 02:24:19;;;;;;;;;;;19.40;95.90;;;;;;5061851;28;20186;-68
2022/09/16 02:26:47;;;;;;;;;;;19.40;95.90;;;;;;5061973;28;20007;-68
2022/09/16 02:29:15;;;;;;;;;;;19.40;95.90;;;;;;5062086;28;19909;-68
2022/09/16 02:31:44;;;;;;;;;;;19.40;95.90;;;;;;5062184;28;19919;-68
2022/09/16 02:34:13;;;;;;;;;;;19.30;95.80;;;;;;4996153;28;1886745;-68
2022/09/16 02:36:40;;;;;;;;;;;19.30;95.80;;;;;;5062764;28;19909;-68
2022/09/16 02:39:08;;;;;;;;;;;19.30;95.90;;;;;;5062486;28;19918;-68
2022/09/16 02:41:34;;;;;;;;;;;19.30;95.90;;;;;;5062655;28;19909;-68
2022/09/16 02:44:00;;;;;;;;;;;19.30;95.90;;;;;;5062313;28;19980;-68
2022/09/16 02:46:44;;;;;;;;;;;19.30;95.90;;;;;;5062459;28;19977;-68
2022/09/16 02:49:38;;;;;;;;;;;19.30;95.90;;;;;;5062269;28;19909;-68
2022/09/16 02:52:10;;;;;;;;;;;19.30;95.90;;;;;;5058514;28;20370;-68
2022/09/16 02:54:44;;;;;;;;;;;19.30;95.90;;;;;;5062130;28;20410;-68
2022/09/16 02:57:27;;;;;;;;;;;19.30;95.90;;;;;;5062099;28;19919;-68
2022/09/16 02:59:53;;;;;;;;;;;19.30;96.00;;;;;;5062135;28;19999;-68
2022/09/16 03:02:19;;;;;;;;;;;19.30;95.90;;;;;;5061773;28;19915;-68
2022/09/16 03:04:45;;;;;;;;;;;19.30;95.90;;;;;;5061966;28;19908;-68
2022/09/16 03:07:14;;;;;;;;;;;19.30;95.90;;;;;;5062016;28;19947;-68
2022/09/16 03:09:41;;;;;;;;;;;19.30;95.90;;;;;;5061488;28;20284;-68
2022/09/16 03:12:21;;;;;;;;;;;19.30;95.90;;;;;;5061884;28;19909;-68
2022/09/16 03:15:07;;;;;;;;;;;19.30;96.00;;;;;;5061737;28;20003;-68
2022/09/16 03:17:35;;;;;;;;;;;19.30;96.00;;;;;;5061499;28;19909;-68
2022/09/16 03:20:10;;;;;;;;;;;19.30;96.00;;;;;;5061012;28;19920;-68
2022/09/16 03:22:58;;;;;;;;;;;19.30;96.00;;;;;;5060654;28;19908;-68
2022/09/16 03:25:47;;;;;;;;;;;19.30;96.10;;;;;;5061119;28;19909;-68
2022/09/16 03:28:33;;;;;;;;;;;19.30;96.10;;;;;;5061301;28;19924;-68
2022/09/16 03:31:02;;;;;;;;;;;19.30;96.10;;;;;;5043387;28;20190;-68
2022/09/16 03:33:44;;;;;;;;;;;19.20;96.00;;;;;;5060903;28;20258;-68
2022/09/16 03:36:12;;;;;;;;;;;19.20;96.00;;;;;;5061276;28;19912;-68
2022/09/16 03:38:54;;;;;;;;;;;19.30;96.10;;;;;;5060522;28;19909;-68
2022/09/16 03:41:20;;;;;;;;;;;19.20;96.00;;;;;;5060321;28;19920;-69
2022/09/16 03:43:52;;;;;;;;;;;19.20;96.00;;;;;;5078074;28;19955;-68
2022/09/16 03:46:18;;;;;;;;;;;19.20;96.00;;;;;;5078210;28;19919;-68
2022/09/16 03:48:44;;;;;;;;;;;19.20;96.00;;;;;;5060745;28;19908;-68
2022/09/16 03:51:09;;;;;;;;;;;19.20;96.00;;;;;;5060844;28;19916;-69
2022/09/16 03:53:35;;;;;;;;;;;19.20;96.00;;;;;;5060819;28;19919;-68
2022/09/16 03:56:01;;;;;;;;;;;19.20;96.00;;;;;;5061295;28;19965;-68
2022/09/16 03:58:27;;;;;;;;;;;19.20;96.00;;;;;;5060450;28;20277;-68
2022/09/16 04:00:52;;;;;;;;;;;19.20;96.00;;;;;;5060517;28;20257;-68
2022/09/16 04:03:18;;;;;;;;;;;19.20;96.00;;;;;;5060303;28;19908;-68
2022/09/16 04:05:44;;;;;;;;;;;19.20;96.00;;;;;;5059849;28;19999;-68
2022/09/16 04:08:09;;;;;;;;;;;19.20;96.00;;;;;;5059956;28;19913;-68
2022/09/16 04:10:38;;;;;;;;;;;19.20;96.00;;;;;;5060328;28;19959;-68
2022/09/16 04:13:04;;;;;;;;;;;19.20;96.00;;;;;;5060165;28;19915;-68
2022/09/16 04:15:29;;;;;;;;;;;19.20;96.00;;;;;;5060359;28;19908;-68
2022/09/16 04:17:55;;;;;;;;;;;19.20;96.00;;;;;;5060447;28;20194;-68
2022/09/16 04:20:22;;;;;;;;;;;19.20;96.00;;;;;;5060426;28;19989;-68
2022/09/16 04:22:48;;;;;;;;;;;19.10;96.00;;;;;;5059843;28;19909;-68
2022/09/16 04:25:13;;;;;;;;;;;19.10;96.00;;;;;;5060010;28;19913;-68
2022/09/16 04:27:39;;;;;;;;;;;19.10;96.00;;;;;;5060123;28;19974;-68
2022/09/16 04:30:05;;;;;;;;;;;19.10;96.00;;;;;;5059439;28;19916;-68
2022/09/16 04:32:30;;;;;;;;;;;19.10;96.00;;;;;;5076005;28;19923;-68
2022/09/16 04:34:56;;;;;;;;;;;19.10;96.00;;;;;;5060193;28;20341;-68
2022/09/16 04:37:23;;;;;;;;;;;19.10;96.00;;;;;;5060266;28;19909;-68
2022/09/16 04:39:48;;;;;;;;;;;19.10;96.00;;;;;;5059983;28;19948;-68
2022/09/16 04:42:14;;;;;;;;;;;19.10;96.00;;;;;;5059796;28;19970;-68
2022/09/16 04:44:39;;;;;;;;;;;19.10;96.00;;;;;;5059773;28;19913;-68
2022/09/16 04:47:13;;;;;;;;;;;19.10;96.00;;;;;;5058617;28;19947;-68
2022/09/16 04:49:38;;;;;;;;;;;19.10;96.00;;;;;;5059943;28;19919;-68
2022/09/16 04:52:04;;;;;;;;;;;19.10;96.00;;;;;;5059492;28;19908;-68
2022/09/16 04:54:29;;;;;;;;;;;19.10;96.00;;;;;;5059781;28;19912;-68
2022/09/16 04:56:56;;;;;;;;;;;19.10;96.00;;;;;;5059112;28;20418;-68
2022/09/16 04:59:22;;;;;;;;;;;19.10;96.00;;;;;;5058366;28;19908;-68
2022/09/16 05:01:47;;;;;;;;;;;19.10;96.00;;;;;;5057663;28;19912;-68
2022/09/16 05:04:13;;;;;;;;;;;19.10;96.00;;;;;;5058350;28;19970;-68
2022/09/16 05:06:40;;;;;;;;;;;19.10;96.00;;;;;;5058081;28;20391;-68
2022/09/16 05:09:06;;;;;;;;;;;19.10;96.00;;;;;;5075665;28;19936;-68
2022/09/16 05:11:36;;;;;;;;;;;19.10;96.00;;;;;;5075466;28;19909;-68
2022/09/16 05:14:02;;;;;;;;;;;19.10;96.00;;;;;;5075123;28;19909;-68
2022/09/16 05:16:29;;;;;;;;;;;19.10;96.00;;;;;;5073690;28;20348;-68
2022/09/16 05:18:56;;;;;;;;;;;19.10;96.00;;;;;;5074000;28;19999;-68
2022/09/16 05:21:23;;;;;;;;;;;19.10;96.00;;;;;;5072649;28;19908;-67
2022/09/16 05:23:48;;;;;;;;;;;19.10;96.00;;;;;;5074585;28;20007;-68
2022/09/16 05:26:16;;;;;;;;;;;19.10;96.00;;;;;;5073455;28;20011;-68
2022/09/16 05:28:42;;;;;;;;;;;19.10;96.00;;;;;;5073215;28;20422;-68
2022/09/16 05:31:08;;;;;;;;;;;19.10;96.00;;;;;;5073236;28;20463;-68
2022/09/16 05:33:39;;;;;;;;;;;19.10;96.00;;;;;;5071563;28;19916;-68
2022/09/16 05:36:06;;;;;;;;;;;19.10;96.00;;;;;;5055756;28;19916;-68
2022/09/16 05:38:32;;;;;;;;;;;19.10;96.00;;;;;;5072884;28;20003;-68
2022/09/16 05:40:58;;;;;;;;;;;19.10;96.00;;;;;;5054723;28;20380;-68
2022/09/16 05:43:25;;;;;;;;;;;19.10;96.00;;;;;;5070427;28;19955;-68
2022/09/16 05:45:51;;;;;;;;;;;19.10;95.90;;;;;;5059762;28;19916;-68
2022/09/16 05:48:16;;;;;;;;;;;19.10;95.90;;;;;;5078151;28;19940;-68
2022/09/16 05:50:50;;;;;;;;;;;19.10;95.90;;;;;;5058992;28;19998;-68
2022/09/16 05:53:17;;;;;;;;;;;19.10;95.90;;;;;;5076142;28;20290;-67
2022/09/16 05:55:52;;;;;;;;;;;19.10;95.80;;;;;;5059776;28;20413;-69
2022/09/16 05:58:18;;;;;;;;;;;19.20;95.80;;;;;;5076062;28;19952;-68
2022/09/16 06:00:45;;;;;;;;;;;19.20;95.80;;;;;;5058904;28;19971;-68
2022/09/16 06:03:10;;;;;;;;;;;19.30;95.70;;;;;;5059293;28;19948;-68
2022/09/16 06:05:36;;;;;;;;;;;19.80;95.20;;;;;;5057428;28;19955;-67
2022/09/16 06:08:02;;;;;;;;;;;20.40;93.60;;;;;;5057925;28;19912;-67
2022/09/16 06:10:27;;;;;;;;;;;21.00;91.90;;;;;;5056982;28;19908;-68
2022/09/16 06:12:53;;;;;;;;;;;21.40;90.30;;;;;;5058985;28;19978;-67
2022/09/16 06:15:18;;;;;;;;;;;21.70;87.70;;;;;;5058527;28;19909;-67
2022/09/16 06:17:44;;;;;;;;;;;21.50;87.30;;;;;;5057732;28;19915;-68
2022/09/16 06:20:13;;;;;;;;;;;21.10;89.50;;;;;;5056035;28;19919;-68
2022/09/16 06:22:39;;;;;;;;;;;20.80;90.60;;;;;;5056332;28;19919;-68
2022/09/16 06:25:05;;;;;;;;;;;20.60;91.30;;;;;;5073516;28;20387;-68
2022/09/16 06:27:31;;;;;;;;;;;20.40;91.90;;;;;;5073408;28;19923;-68
2022/09/16 06:29:56;;;;;;;;;;;20.30;92.40;;;;;;5073419;28;19919;-68
2022/09/16 06:32:22;;;;;;;;;;;20.20;92.80;;;;;;5057639;28;19920;-67
2022/09/16 06:34:49;;;;;;;;;;;20.10;93.00;;;;;;5058614;28;19908;-68
2022/09/16 06:37:14;;;;;;;;;;;20.00;93.30;;;;;;5059377;28;19909;-68
2022/09/16 06:39:41;;;;;;;;;;;20.00;93.50;;;;;;5075779;28;19920;-67
2022/09/16 06:42:07;;;;;;;;;;;19.90;93.50;;;;;;5059344;28;20181;-68
2022/09/16 06:44:32;;;;;;;;;;;19.90;93.60;;;;;;5075727;28;20288;-68
2022/09/16 06:46:59;;;;;;;;;;;19.80;93.80;;;;;;5059523;28;20003;-68
2022/09/16 06:49:25;;;;;;;;;;;19.80;93.90;;;;;;5075450;28;19909;-68
2022/09/16 06:51:50;;;;;;;;;;;19.80;93.90;;;;;;5056409;28;20484;-68
2022/09/16 06:54:16;;;;;;;;;;;19.80;94.00;;;;;;5056316;28;19908;-68
2022/09/16 06:56:42;;;;;;;;;;;19.70;94.10;;;;;;5056276;28;19948;-68
2022/09/16 06:59:09;;;;;;;;;;;19.70;94.20;;;;;;5058439;28;19908;-68
2022/09/16 07:01:35;;;;;;;;;;;19.70;94.30;;;;;;5073386;28;19908;-68
2022/09/16 07:04:01;;;;;;;;;;;19.70;94.40;;;;;;5073436;28;19913;-70
2022/09/16 07:06:28;;;;;;;;;;;19.70;94.40;;;;;;5074571;28;19912;-68
2022/09/16 07:08:54;;;;;;;;;;;19.60;94.40;;;;;;5074934;28;19908;-68
2022/09/16 07:11:21;;;;;;;;;;;19.70;94.50;;;;;;5057523;28;20180;-68
2022/09/16 07:13:47;;;;;;;;;;;19.60;94.60;;;;;;5072811;28;19908;-68
2022/09/16 07:16:15;;;;;;;;;;;19.60;94.60;;;;;;5074229;28;19908;-68
2022/09/16 07:18:41;;;;;;;;;;;19.60;94.70;;;;;;5073972;28;19978;-68
2022/09/16 07:21:08;;;;;;;;;;;19.60;94.70;;;;;;5073219;28;20423;-68
2022/09/16 07:23:34;;;;;;;;;;;19.60;94.70;;;;;;5073880;28;19916;-68
2022/09/16 07:26:04;;;;;;;;;;;19.60;94.70;;;;;;5074359;28;19920;-68
2022/09/16 07:28:31;;;;;;;;;;;19.60;94.70;;;;;;5073077;28;19923;-68
2022/09/16 07:30:59;;;;;;;;;;;19.70;94.60;;;;;;5075316;28;20449;-68
2022/09/16 07:33:25;;;;;;;;;;;19.70;94.50;;;;;;5057742;28;19916;-68
2022/09/16 07:35:50;;;;;;;;;;;19.80;94.30;;;;;;5059001;28;19913;-68
2022/09/16 07:38:16;;;;;;;;;;;19.90;94.00;;;;;;5058923;28;19926;-68
2022/09/16 07:40:43;;;;;;;;;;;20.70;93.20;;;;;;5058272;28;19909;-68
2022/09/16 07:43:08;;;;;;;;;;;21.20;90.40;;;;;;5056852;28;19993;-69
2022/09/16 07:45:34;;;;;;;;;;;21.10;90.10;;;;;;5057339;28;19948;-68
2022/09/16 07:47:59;;;;;;;;;;;21.00;90.30;;;;;;5057249;28;19952;-67
2022/09/16 07:50:25;;;;;;;;;;;21.10;90.10;;;;;;5056900;28;20325;-68
2022/09/16 07:52:54;;;;;;;;;;;21.70;87.40;;;;;;5056106;28;20433;-68
2022/09/16 07:55:20;;;;;;;;;;;22.30;82.20;;;;;;5072907;28;19917;-68
2022/09/16 07:57:45;;;;;;;;;;;24.00;73.10;;;;;;5056156;28;19908;-68
2022/09/16 08:00:11;;;;;;;;;;;24.30;66.70;;;;;;5056825;28;19912;-69
2022/09/16 08:02:37;;;;;;;;;;;23.40;68.90;;;;;;5072234;28;19909;-69
2022/09/16 08:05:03;;;;;;;;;;;23.70;71.50;;;;;;5056765;28;20007;-68
2022/09/16 08:07:29;;;;;;;;;;;24.50;65.90;;;;;;5073612;28;19965;-68
2022/09/16 08:09:54;;;;;;;;;;;24.30;65.40;;;;;;5054763;28;19963;-66
2022/09/16 08:12:20;;;;;;;;;;;24.40;64.40;;;;;;5056329;28;19909;-69
2022/09/16 08:14:46;;;;;;;;;;;23.70;66.50;;;;;;5056409;28;19968;-69
2022/09/16 08:17:12;;;;;;;;;;;24.40;66.80;;;;;;5055448;28;19938;-68
2022/09/16 08:19:38;;;;;;;;;;;24.40;63.60;;;;;;5054138;28;19916;-69
2022/09/16 08:22:04;;;;;;;;;;;24.00;65.00;;;;;;5052552;28;19916;-68
2022/09/16 08:24:29;;;;;;;;;;;23.70;67.40;;;;;;5051885;28;19908;-68
2022/09/16 08:26:55;;;;;;;;;;;23.90;65.70;;;;;;5052465;28;19970;-70
2022/09/16 08:29:23;;;;;;;;;;;23.40;68.00;;;;;;5052563;28;19913;-69
2022/09/16 08:31:49;;;;;;;;;;;24.60;65.30;;;;;;5052870;28;19963;-69
2022/09/16 08:34:15;;;;;;;;;;;25.60;60.10;;;;;;5053583;28;19940;-69
2022/09/16 08:36:41;;;;;;;;;;;25.90;58.60;;;;;;5055551;28;19915;-69
2022/09/16 08:39:08;;;;;;;;;;;26.70;57.00;;;;;;5070788;28;19996;-69
2022/09/16 08:41:40;;;;;;;;;;;26.30;57.30;;;;;;5072551;28;19944;-68
2022/09/16 08:44:06;;;;;;;;;;;27.40;56.30;;;;;;5053367;28;19909;-68
2022/09/16 08:46:31;;;;;;;;;;;27.70;54.60;;;;;;5054335;28;19923;-69
2022/09/16 08:48:57;;;;;;;;;;;27.50;54.60;;;;;;5054312;28;20298;-69
2022/09/16 08:51:23;;;;;;;;;;;27.20;54.20;;;;;;5053829;28;19934;-69
2022/09/16 08:53:53;;;;;;;;;;;25.90;55.50;;;;;;5070981;28;19916;-69
2022/09/16 08:56:21;;;;;;;;;;;25.70;56.90;;;;;;5071215;28;19908;-69
2022/09/16 08:58:49;;;;;;;;;;;26.80;56.60;;;;;;5071893;28;20348;-69
2022/09/16 09:01:28;;;;;;;;;;;28.10;54.60;;;;;;5071764;28;19924;-68
2022/09/16 09:03:54;;;;;;;;;;;26.60;54.40;;;;;;5072024;28;19923;-69
2022/09/16 09:06:30;;;;;;;;;;;25.40;56.20;;;;;;5055773;28;19912;-69
2022/09/16 09:09:01;;;;;;;;;;;24.60;57.90;;;;;;5056056;28;19916;-69
2022/09/16 09:11:39;;;;;;;;;;;24.50;59.90;;;;;;5054866;28;19915;-69
2022/09/16 09:14:05;;;;;;;;;;;26.50;57.40;;;;;;5056176;28;19909;-69
2022/09/16 09:16:31;;;;;;;;;;;27.70;54.70;;;;;;5056103;28;19912;-69
2022/09/16 09:19:16;;;;;;;;;;;28.40;54.00;;;;;;5055545;28;20167;-70
2022/09/16 09:21:50;;;;;;;;;;;28.80;52.50;;;;;;5058214;28;19908;-70
2022/09/16 09:24:35;;;;;;;;;;;29.50;51.90;;;;;;5075720;28;19909;-69
2022/09/16 09:27:08;;;;;;;;;;;28.80;52.00;;;;;;5078460;28;19922;-70
2022/09/16 09:29:40;;;;;;;;;;;28.70;51.40;;;;;;5077144;28;20009;-69
2022/09/16 09:32:24;;;;;;;;;;;27.70;52.20;;;;;;5058343;28;20057;-70
2022/09/16 09:34:56;;;;;;;;;;;27.00;53.70;;;;;;5058907;28;19917;-70
2022/09/16 09:37:31;;;;;;;;;;;26.40;53.90;;;;;;5059616;28;20120;-70
2022/09/16 09:40:08;;;;;;;;;;;27.60;54.10;;;;;;5060224;28;19936;-69
2022/09/16 09:42:36;;;;;;;;;;;28.50;52.40;;;;;;5059274;28;19909;-69
2022/09/16 09:45:02;;;;;;;;;;;28.60;52.50;;;;;;5059191;28;19909;-69
2022/09/16 09:47:34;;;;;;;;;;;28.90;51.50;;;;;;5058901;28;20297;-69
2022/09/16 09:50:23;;;;;;;;;;;28.10;51.80;;;;;;5059994;28;19908;-69
2022/09/16 09:52:53;;;;;;;;;;;27.10;52.60;;;;;;5046894;28;20167;-69
2022/09/16 09:55:19;;;;;;;;;;;26.70;53.30;;;;;;5074854;28;19970;-70
2022/09/16 09:57:46;;;;;;;;;;;26.50;53.60;;;;;;5074779;28;19948;-70
2022/09/16 10:00:15;;;;;;;;;;;26.40;53.70;;;;;;5059249;28;19909;-69
2022/09/16 10:02:43;;;;;;;;;;;25.80;54.40;;;;;;5074219;28;19908;-69
2022/09/16 10:05:23;;;;;;;;;;;25.20;55.40;;;;;;5073470;28;19908;-70
2022/09/16 10:07:50;;;;;;;;;;;24.90;56.30;;;;;;5073938;28;20539;-69
2022/09/16 10:10:20;;;;;;;;;;;24.70;56.70;;;;;;5074956;28;20372;-70
2022/09/16 10:12:46;;;;;;;;;;;24.60;57.00;;;;;;5075490;28;19909;-70
2022/09/16 10:15:20;;;;;;;;;;;24.30;57.70;;;;;;5084012;28;20015;-70
2022/09/16 10:17:49;;;;;;;;;;;24.10;58.50;;;;;;5075623;28;19965;-69
2022/09/16 10:20:26;;;;;;;;;;;23.80;59.30;;;;;;5074657;28;19981;-70
2022/09/16 10:23:03;;;;;;;;;;;23.60;59.70;;;;;;5073376;28;19908;-69
2022/09/16 10:25:30;;;;;;;;;;;23.50;60.60;;;;;;5074896;28;19919;-69
2022/09/16 10:28:00;;;;;;;;;;;23.40;61.50;;;;;;5074775;28;19921;-69
2022/09/16 10:30:31;;;;;;;;;;;23.40;62.20;;;;;;5073643;28;19909;-69
2022/09/16 10:33:00;;;;;;;;;;;23.30;62.80;;;;;;5057868;28;20175;-69
2022/09/16 10:35:36;;;;;;;;;;;23.30;63.10;;;;;;5073228;28;19908;-68
2022/09/16 10:38:14;;;;;;;;;;;23.20;63.50;;;;;;5074304;28;19908;-69
2022/09/16 10:40:49;;;;;;;;;;;23.20;63.70;;;;;;5074633;28;19939;-69
2022/09/16 10:43:15;;;;;;;;;;;23.20;64.00;;;;;;5073510;28;20385;-68
2022/09/16 10:45:45;;;;;;;;;;;23.20;64.40;;;;;;5056383;28;19919;-68
2022/09/16 10:48:13;;;;;;;;;;;23.10;64.90;;;;;;5072742;28;19970;-69
2022/09/16 10:50:38;;;;;;;;;;;23.10;65.20;;;;;;5073370;28;19923;-69
2022/09/16 10:53:20;;;;;;;;;;;23.10;65.50;;;;;;5057428;28;19916;-68
2022/09/16 10:55:56;;;;;;;;;;;23.00;66.50;;;;;;5074831;28;20010;-70
2022/09/16 10:58:21;;;;;;;;;;;23.00;66.40;;;;;;5073709;28;19916;-69
2022/09/16 11:00:47;;;;;;;;;;;23.00;66.60;;;;;;5056990;28;19909;-69
2022/09/16 11:03:12;;;;;;;;;;;23.00;67.10;;;;;;5054326;28;19909;-69
2022/09/16 11:05:54;;;;;;;;;;;23.00;67.80;;;;;;5054512;28;19908;-70
2022/09/16 11:08:29;;;;;;;;;;;23.00;67.40;;;;;;5071939;28;20411;-69
2022/09/16 11:11:04;;;;;;;;;;;22.90;67.70;;;;;;5057090;28;20373;-69
2022/09/16 11:13:49;;;;;;;;;;;22.80;68.10;;;;;;5073395;28;19908;-70
2022/09/16 11:16:36;;;;;;;;;;;22.80;67.90;;;;;;5056035;28;19909;-70
2022/09/16 11:19:01;;;;;;;;;;;22.70;68.30;;;;;;5073929;28;19997;-70
2022/09/16 11:21:58;;;;;;;;;;;22.70;68.70;;;;;;5058496;28;20379;-69
2022/09/16 11:24:35;;;;;;;;;;;22.70;68.20;;;;;;5053829;28;19908;-69
2022/09/16 11:27:03;;;;;;;;;;;22.70;68.30;;;;;;5072771;28;20010;-70
2022/09/16 11:29:29;;;;;;;;;;;22.60;68.60;;;;;;5053348;28;19927;-69
2022/09/16 11:32:07;;;;;;;;;;;22.60;69.10;;;;;;5053257;28;19909;-69
2022/09/16 11:34:36;;;;;;;;;;;22.60;69.10;;;;;;5070182;28;20308;-69
2022/09/16 11:37:20;;;;;;;;;;;22.60;69.40;;;;;;5053482;28;19939;-68
2022/09/16 11:40:05;;;;;;;;;;;22.60;69.40;;;;;;5054735;28;19908;-69
2022/09/16 11:42:31;;;;;;;;;;;22.60;69.30;;;;;;5056261;28;20421;-69
2022/09/16 11:45:06;;;;;;;;;;;22.60;69.40;;;;;;5057160;28;19916;-70
2022/09/16 11:47:32;;;;;;;;;;;22.60;69.50;;;;;;5073136;28;19912;-69
2022/09/16 11:50:17;;;;;;;;;;;22.60;69.70;;;;;;5056725;28;19909;-70
2022/09/16 11:52:55;;;;;;;;;;;22.50;69.90;;;;;;5055918;28;19962;-69
2022/09/16 11:55:39;;;;;;;;;;;22.50;70.20;;;;;;5070208;28;19999;-69
2022/09/16 11:58:31;;;;;;;;;;;22.50;70.30;;;;;;5054862;28;19908;-70
2022/09/16 12:00:58;;;;;;;;;;;22.50;70.30;;;;;;5050653;28;19908;-69
2022/09/16 12:03:24;;;;;;;;;;;22.50;70.30;;;;;;5071665;28;19974;-70
2022/09/16 12:06:03;;;;;;;;;;;22.60;70.30;;;;;;5053172;28;20074;-68
2022/09/16 12:08:32;;;;;;;;;;;22.60;70.30;;;;;;5070489;28;19943;-70
2022/09/16 12:10:59;;;;;;;;;;;22.60;70.50;;;;;;5053368;28;19909;-70
2022/09/16 12:13:33;;;;;;;;;;;22.60;70.30;;;;;;5069564;28;19918;-69
2022/09/16 12:16:20;;;;;;;;;;;22.60;70.00;;;;;;5071085;28;19908;-69
2022/09/16 12:18:51;;;;;;;;;;;22.70;69.60;;;;;;5072761;28;19962;-70
2022/09/16 12:21:25;;;;;;;;;;;22.70;69.60;;;;;;5072198;28;19919;-69
2022/09/16 12:24:00;;;;;;;;;;;22.70;69.40;;;;;;5071731;28;19908;-69
2022/09/16 12:26:28;;;;;;;;;;;22.60;69.30;;;;;;5071851;28;19913;-69
2022/09/16 12:29:11;;;;;;;;;;;22.60;69.30;;;;;;5071693;28;20087;-69
2022/09/16 12:31:36;;;;;;;;;;;22.60;69.40;;;;;;5071232;28;19927;-69
2022/09/16 12:34:13;;;;;;;;;;;22.60;69.50;;;;;;5054175;28;19916;-70
2022/09/16 12:36:41;;;;;;;;;;;22.50;69.60;;;;;;5070799;28;20229;-69
2022/09/16 12:39:09;;;;;;;;;;;22.60;69.50;;;;;;5072564;28;19908;-70
2022/09/16 12:41:43;;;;;;;;;;;22.50;69.50;;;;;;5072140;28;20198;-70
2022/09/16 12:44:21;;;;;;;;;;;22.50;69.90;;;;;;5072225;28;19909;-69
2022/09/16 12:46:47;;;;;;;;;;;22.50;70.40;;;;;;5055830;28;20023;-69
2022/09/16 12:49:22;;;;;;;;;;;22.50;70.60;;;;;;5055478;28;19991;-69
2022/09/16 12:51:50;;;;;;;;;;;22.40;70.70;;;;;;5054101;28;19908;-69
2022/09/16 12:54:25;;;;;;;;;;;22.40;70.40;;;;;;5056027;28;20194;-70
2022/09/16 12:57:09;;;;;;;;;;;22.40;70.30;;;;;;5075567;28;19909;-69
2022/09/16 12:59:47;;;;;;;;;;;22.50;70.30;;;;;;5058460;28;20309;-69
2022/09/16 13:02:21;;;;;;;;;;;22.40;70.30;;;;;;5059971;28;19908;-70
2022/09/16 13:04:49;;;;;;;;;;;22.30;71.00;;;;;;5076629;28;19908;-70
2022/09/16 13:07:23;;;;;;;;;;;22.20;71.70;;;;;;5075785;28;19912;-69
2022/09/16 13:09:58;;;;;;;;;;;22.10;72.40;;;;;;5076487;28;19912;-69
2022/09/16 13:12:27;;;;;;;;;;;22.00;72.20;;;;;;5075637;28;19955;-69
2022/09/16 13:14:55;;;;;;;;;;;22.00;72.80;;;;;;5075643;28;20143;-69
2022/09/16 13:17:26;;;;;;;;;;;21.90;72.70;;;;;;5075038;28;19909;-69
2022/09/16 13:19:53;;;;;;;;;;;21.90;72.90;;;;;;5058754;28;19916;-68
2022/09/16 13:22:18;;;;;;;;;;;21.80;73.70;;;;;;5073951;28;19913;-69
2022/09/16 13:25:05;;;;;;;;;;;21.80;74.20;;;;;;5058086;28;19909;-68
2022/09/16 13:27:33;;;;;;;;;;;21.80;74.70;;;;;;5017657;28;19912;-68
2022/09/16 13:30:11;;;;;;;;;;;21.70;75.90;;;;;;5074415;28;19909;-69
2022/09/16 13:32:37;;;;;;;;;;;21.70;76.10;;;;;;5074332;28;19951;-69
2022/09/16 13:35:18;;;;;;;;;;;21.60;76.80;;;;;;5058762;28;19963;-68
2022/09/16 13:37:44;;;;;;;;;;;21.50;76.80;;;;;;5058992;28;20270;-68
2022/09/16 13:40:21;;;;;;;;;;;21.50;77.70;;;;;;5075297;28;20229;-68
2022/09/16 13:42:47;;;;;;;;;;;21.40;78.30;;;;;;5075041;28;19909;-68
2022/09/16 13:45:32;;;;;;;;;;;21.40;78.90;;;;;;5057958;28;19915;-68
2022/09/16 13:48:01;;;;;;;;;;;21.30;79.40;;;;;;5057747;28;20061;-68
2022/09/16 13:50:26;;;;;;;;;;;21.30;80.10;;;;;;5074190;28;20012;-68
2022/09/16 13:52:52;;;;;;;;;;;21.30;80.70;;;;;;5056907;28;19955;-68
2022/09/16 13:55:23;;;;;;;;;;;21.20;81.20;;;;;;5073724;28;20206;-68
2022/09/16 13:57:57;;;;;;;;;;;21.20;81.50;;;;;;5074464;28;20246;-68
2022/09/16 14:00:22;;;;;;;;;;;21.20;81.80;;;;;;5073949;28;19908;-68
2022/09/16 14:02:51;;;;;;;;;;;21.10;82.30;;;;;;5075320;28;19923;-69
2022/09/16 14:05:23;;;;;;;;;;;21.10;82.70;;;;;;5056966;28;20016;-69
2022/09/16 14:08:07;;;;;;;;;;;21.10;83.20;;;;;;5057205;28;20519;-68
2022/09/16 14:10:55;;;;;;;;;;;21.00;83.50;;;;;;5056806;28;20282;-69
2022/09/16 14:13:21;;;;;;;;;;;21.00;83.90;;;;;;5073862;28;19918;-69
2022/09/16 14:15:55;;;;;;;;;;;21.00;84.30;;;;;;5078744;28;19908;-69
2022/09/16 14:18:27;;;;;;;;;;;21.00;84.70;;;;;;5081240;28;19909;-69
2022/09/16 14:20:57;;;;;;;;;;;21.00;84.90;;;;;;5074533;28;19909;-69
2022/09/16 14:23:24;;;;;;;;;;;21.00;84.90;;;;;;5075127;28;19909;-69
2022/09/16 14:25:55;;;;;;;;;;;21.00;84.80;;;;;;5075846;28;19916;-69
2022/09/16 14:28:22;;;;;;;;;;;21.00;84.60;;;;;;5075305;28;19967;-67
2022/09/16 14:30:55;;;;;;;;;;;21.10;84.30;;;;;;5075299;28;20062;-69
2022/09/16 14:33:27;;;;;;;;;;;21.10;84.00;;;;;;5074134;28;19917;-69
2022/09/16 14:35:54;;;;;;;;;;;21.10;84.00;;;;;;5071881;28;19909;-68